Time;durP1;ratioP1;P1;durP2;ratioP2;P2;SDS_P1;SDS_P2;PMS_P1;PMS_P2;Temp;Humidity;BMP_temperature;BMP_pressure;BME280_temperature;BME280_humidity;BME280_pressure;Samples;Min_cycle;Max_cycle;Signal;HPM_P1;HPM_P2
2021/07/17 00:01:08;;;;;;;27.40;10.10;;;;;;;17.23;100.00;102446.19;5225698;28;20104;-69
2021/07/17 00:03:39;;;;;;;23.77;9.20;;;;;;;17.19;100.00;102450.09;5224886;28;20432;-69
2021/07/17 00:06:10;;;;;;;25.35;8.32;;;;;;;17.21;100.00;102442.88;5223050;28;20042;-69
2021/07/17 00:08:42;;;;;;;22.45;8.57;;;;;;;17.23;100.00;102451.50;5222427;28;20115;-69
2021/07/17 00:11:13;;;;;;;21.73;8.75;;;;;;;17.18;100.00;102448.41;5225062;28;20036;-69
2021/07/17 00:13:44;;;;;;;21.60;9.43;;;;;;;17.17;100.00;102446.75;5223371;28;20110;-69
2021/07/17 00:16:17;;;;;;;23.25;9.27;;;;;;;17.22;100.00;102456.94;5226452;28;20025;-69
2021/07/17 00:18:48;;;;;;;24.50;8.60;;;;;;;17.18;100.00;102453.72;5222392;28;20041;-69
2021/07/17 00:21:20;;;;;;;25.37;10.97;;;;;;;17.17;100.00;102448.56;5220809;28;20037;-69
2021/07/17 00:23:52;;;;;;;22.38;10.27;;;;;;;17.20;100.00;102449.13;5220756;28;20033;-69
2021/07/17 00:26:23;;;;;;;23.00;10.07;;;;;;;17.20;100.00;102454.44;5222606;28;20033;-69
2021/07/17 00:28:55;;;;;;;26.77;9.68;;;;;;;17.17;100.00;102452.06;5214722;28;20021;-69
2021/07/17 00:31:26;;;;;;;24.77;9.63;;;;;;;17.18;100.00;102450.25;5225022;28;20029;-69
2021/07/17 00:33:57;;;;;;;24.38;8.55;;;;;;;17.16;100.00;102455.69;5223039;28;20065;-69
2021/07/17 00:36:29;;;;;;;25.67;9.50;;;;;;;17.18;100.00;102455.53;5223176;28;20582;-69
2021/07/17 00:39:00;;;;;;;22.58;9.55;;;;;;;17.16;100.00;102452.16;5223493;28;20455;-69
2021/07/17 00:41:32;;;;;;;28.05;9.75;;;;;;;17.19;100.00;102444.78;5221415;28;20474;-69
2021/07/17 00:44:03;;;;;;;23.67;8.77;;;;;;;17.21;100.00;102447.31;5227222;28;20423;-69
2021/07/17 00:46:35;;;;;;;20.15;9.02;;;;;;;17.23;100.00;102445.38;5223309;28;20017;-69
2021/07/17 00:49:08;;;;;;;22.00;9.38;;;;;;;17.18;100.00;102453.72;5224839;28;20039;-69
2021/07/17 00:51:40;;;;;;;20.45;8.60;;;;;;;17.18;100.00;102453.72;5222736;28;20017;-69
2021/07/17 00:54:16;;;;;;;20.65;9.55;;;;;;;17.18;100.00;102440.47;5219443;28;20056;-69
2021/07/17 00:56:48;;;;;;;22.42;8.93;;;;;;;17.15;100.00;102453.16;5223272;28;20042;-69
2021/07/17 00:59:25;;;;;;;24.50;9.88;;;;;;;17.21;100.00;102450.81;5223245;28;20084;-69
2021/07/17 01:01:58;;;;;;;23.30;9.77;;;;;;;17.17;100.00;102454.69;5223611;28;20034;-69
2021/07/17 01:04:31;;;;;;;18.45;9.00;;;;;;;17.12;100.00;102454.28;5222216;28;20541;-69
2021/07/17 01:07:03;;;;;;;26.80;9.43;;;;;;;17.17;100.00;102453.88;5221117;28;20034;-69
2021/07/17 01:09:34;;;;;;;20.87;9.23;;;;;;;17.20;100.00;102445.66;5223142;28;20032;-69
2021/07/17 01:12:06;;;;;;;23.97;9.43;;;;;;;17.17;100.00;102445.91;5221582;28;20495;-69
2021/07/17 01:14:39;;;;;;;17.67;9.40;;;;;;;17.16;100.00;102447.72;5224878;28;20040;-69
2021/07/17 01:17:10;;;;;;;22.25;8.93;;;;;;;17.15;100.00;102447.84;5223227;28;20399;-69
2021/07/17 01:19:41;;;;;;;19.50;10.02;;;;;;;17.14;100.00;102436.41;5223341;28;20025;-69
2021/07/17 01:22:13;;;;;;;21.55;10.30;;;;;;;17.14;100.00;102435.59;5223993;28;20042;-69
2021/07/17 01:24:45;;;;;;;26.80;11.20;;;;;;;17.14;100.00;102447.00;5221092;28;20355;-69
2021/07/17 01:27:17;;;;;;;20.77;9.57;;;;;;;17.11;100.00;102446.44;5222891;28;20026;-69
2021/07/17 01:29:49;;;;;;;25.67;9.60;;;;;;;17.10;100.00;102447.41;5223873;28;20044;-69
2021/07/17 01:32:20;;;;;;;22.63;9.33;;;;;;;17.12;100.00;102442.81;5225550;28;20026;-69
2021/07/17 01:34:52;;;;;;;21.60;9.02;;;;;;;17.11;100.00;102446.44;5223780;28;20037;-69
2021/07/17 01:37:23;;;;;;;23.93;9.90;;;;;;;17.10;100.00;102450.06;5223743;28;20042;-69
2021/07/17 01:39:55;;;;;;;21.08;9.65;;;;;;;17.10;100.00;102447.41;5223238;28;20025;-69
2021/07/17 01:42:27;;;;;;;22.08;9.65;;;;;;;17.08;100.00;102442.25;5222226;28;20057;-69
2021/07/17 01:44:59;;;;;;;22.45;9.60;;;;;;;17.05;100.00;102439.88;5224131;28;20084;-69
2021/07/17 01:47:30;;;;;;;22.15;9.30;;;;;;;17.08;100.00;102431.66;5218133;28;20029;-69
2021/07/17 01:50:03;;;;;;;25.77;9.83;;;;;;;17.05;100.00;102439.88;5219986;28;20026;-69
2021/07/17 01:52:34;;;;;;;;;;;;;;;17.33;100.00;102443.59;5215231;28;20068;-70
2021/07/17 01:55:07;;;;;;;19.70;9.57;;;;;;;17.04;100.00;102446.13;5223070;28;20513;-69
2021/07/17 01:57:38;;;;;;;19.15;9.77;;;;;;;17.08;100.00;102444.06;5218629;28;20045;-69
2021/07/17 02:00:10;;;;;;;23.90;10.15;;;;;;;17.04;100.00;102443.47;5221427;28;20029;-69
2021/07/17 02:02:42;;;;;;;19.27;9.70;;;;;;;17.03;100.00;102442.66;5222085;28;20018;-69
2021/07/17 02:05:15;;;;;;;18.38;9.60;;;;;;;16.99;100.00;102441.25;5219411;28;20491;-69
2021/07/17 02:07:47;;;;;;;26.52;10.10;;;;;;;16.95;100.00;102437.19;5220084;28;20112;-69
2021/07/17 02:10:21;;;;;;;18.05;9.13;;;;;;;16.91;100.00;102432.28;5223497;28;20104;-69
2021/07/17 02:13:06;;;;;;;21.75;9.32;;;;;;;16.93;100.00;102430.34;5221873;28;20466;-69
2021/07/17 02:15:43;;;;;;;21.80;9.90;;;;;;;16.90;100.00;102433.28;5220965;28;20053;-69
2021/07/17 02:18:32;;;;;;;21.80;9.80;;;;;;;16.90;100.00;102447.34;5220245;28;20084;-69
2021/07/17 02:21:06;;;;;;;23.17;10.23;;;;;;;16.88;100.00;102429.91;5222062;28;20033;-69
2021/07/17 02:23:37;;;;;;;20.80;10.18;;;;;;;16.90;100.00;102438.56;5219574;28;20033;-69
2021/07/17 02:26:10;;;;;;;20.23;9.32;;;;;;;16.89;100.00;102447.47;5220383;28;20368;-69
2021/07/17 02:28:41;;;;;;;19.13;9.88;;;;;;;16.93;100.00;102441.78;5223408;28;20041;-69
2021/07/17 02:31:13;;;;;;;26.20;10.30;;;;;;;16.92;100.00;102440.09;5224033;28;20028;-69
2021/07/17 02:33:44;;;;;;;18.70;9.32;;;;;;;16.92;100.00;102440.09;5222107;28;20026;-69
2021/07/17 02:36:16;;;;;;;26.42;10.88;;;;;;;16.89;100.00;102440.34;5218849;28;20022;-69
2021/07/17 02:38:47;;;;;;;21.40;9.43;;;;;;;16.93;100.00;102443.56;5219255;28;20040;-69
2021/07/17 02:41:21;;;;;;;21.55;9.85;;;;;;;16.88;100.00;102440.50;5222507;28;20482;-69
2021/07/17 02:43:53;;;;;;;19.25;9.60;;;;;;;16.86;100.00;102437.13;5221413;28;20424;-69
2021/07/17 02:46:25;;;;;;;17.52;9.80;;;;;;;16.86;100.00;102442.41;5223462;28;20026;-69
2021/07/17 02:48:56;;;;;;;22.85;10.45;;;;;;;16.84;100.00;102439.09;5222062;28;20475;-69
2021/07/17 02:51:27;;;;;;;26.17;10.45;;;;;;;16.84;100.00;102442.56;5221171;28;20084;-69
2021/07/17 02:53:58;;;;;;;21.27;8.82;;;;;;;16.84;100.00;102447.03;5221796;28;20035;-69
2021/07/17 02:56:30;;;;;;;26.55;10.77;;;;;;;16.82;100.00;102444.53;5222425;28;20121;-69
2021/07/17 02:59:01;;;;;;;23.13;9.73;;;;;;;16.75;100.00;102438.06;5223082;28;20021;-69
2021/07/17 03:01:32;;;;;;;18.40;9.63;;;;;;;16.77;100.00;102446.72;5218904;28;20057;-69
2021/07/17 03:04:04;;;;;;;23.13;10.20;;;;;;;16.79;100.00;102447.44;5219244;28;20380;-69
2021/07/17 03:06:35;;;;;;;18.77;9.43;;;;;;;16.75;100.00;102446.84;5221751;28;20029;-69
2021/07/17 03:09:06;;;;;;;23.45;9.57;;;;;;;16.77;100.00;102457.28;5220181;28;20055;-69
2021/07/17 03:11:38;;;;;;;18.95;9.50;;;;;;;16.75;100.00;102452.16;5222036;28;20402;-69
2021/07/17 03:14:09;;;;;;;24.73;9.90;;;;;;;16.76;100.00;102452.97;5218407;28;20045;-69
2021/07/17 03:16:42;;;;;;;23.65;10.13;;;;;;;16.76;100.00;102447.69;5220370;28;20029;-69
2021/07/17 03:19:13;;;;;;;;;;;;;;;17.00;100.00;102444.72;5222735;28;20021;-69
2021/07/17 03:21:45;;;;;;;19.23;9.57;;;;;;;16.73;100.00;102448.78;5220540;28;20387;-69
2021/07/17 03:24:16;;;;;;;20.23;9.60;;;;;;;16.71;100.00;102453.34;5222136;28;20026;-69
2021/07/17 03:26:48;;;;;;;25.58;10.13;;;;;;;16.70;100.00;102448.16;5220562;28;20033;-69
2021/07/17 03:29:19;;;;;;;21.13;10.38;;;;;;;16.69;100.00;102460.56;5228346;28;20491;-69
2021/07/17 03:31:51;;;;;;;25.05;9.63;;;;;;;16.65;100.00;102455.66;5230126;28;20076;-69
2021/07/17 03:34:22;;;;;;;17.17;8.82;;;;;;;16.66;100.00;102459.97;5224858;28;20026;-69
2021/07/17 03:36:53;;;;;;;22.50;9.75;;;;;;;16.66;100.00;102465.28;5225831;28;20058;-69
2021/07/17 03:39:25;;;;;;;24.75;10.15;;;;;;;16.66;100.00;102468.75;5225884;28;20065;-69
2021/07/17 03:41:56;;;;;;;25.35;10.40;;;;;;;16.61;100.00;102470.97;5228715;28;20037;-69
2021/07/17 03:44:29;;;;;;;20.08;9.82;;;;;;;16.61;100.00;102467.50;5229157;28;20079;-69
2021/07/17 03:47:00;;;;;;;;;;;;;;;16.87;100.00;102457.34;5230704;28;20022;-69
2021/07/17 03:49:32;;;;;;;20.38;9.93;;;;;;;16.55;100.00;102460.88;5230738;28;19920;-69
2021/07/17 03:52:04;;;;;;;24.80;10.75;;;;;;;16.57;100.00;102463.44;5229466;28;20530;-69
2021/07/17 03:54:35;;;;;;;20.58;10.45;;;;;;;16.54;100.00;102457.41;5225147;28;20068;-69
2021/07/17 03:57:06;;;;;;;25.10;10.50;;;;;;;16.54;100.00;102449.47;5230007;28;20014;-69
2021/07/17 03:59:38;;;;;;;23.27;10.68;;;;;;;16.50;100.00;102455.16;5227526;28;20409;-69
2021/07/17 04:02:09;;;;;;;20.90;9.50;;;;;;;16.50;100.00;102453.34;5217836;28;20033;-69
2021/07/17 04:04:42;;;;;;;21.13;10.82;;;;;;;16.50;100.00;102463.94;5223751;28;20037;-69
2021/07/17 04:07:13;;;;;;;;;;;;;;;16.80;100.00;102454.41;5224891;28;20030;-69
2021/07/17 04:09:45;;;;;;;23.60;10.10;;;;;;;16.56;100.00;102456.47;5242421;28;19924;-69
2021/07/17 04:12:16;;;;;;;27.10;10.30;;;;;;;16.53;100.00;102457.56;5226241;28;20102;-69
2021/07/17 04:14:47;;;;;;;23.98;10.43;;;;;;;16.52;100.00;102466.47;5226972;28;20033;-68
2021/07/17 04:17:18;;;;;;;23.73;9.98;;;;;;;16.44;100.00;102458.31;5228504;28;20029;-69
2021/07/17 04:19:50;;;;;;;23.48;9.30;;;;;;;16.41;100.00;102455.94;5225874;28;20029;-69
2021/07/17 04:22:22;;;;;;;23.27;9.63;;;;;;;16.34;100.00;102458.25;5227180;28;20108;-69
2021/07/17 04:24:53;;;;;;;20.88;9.82;;;;;;;16.37;100.00;102462.47;5227340;28;20022;-69
2021/07/17 04:27:25;;;;;;;21.92;9.70;;;;;;;16.45;100.00;102470.59;5227289;28;20048;-69
2021/07/17 04:29:56;;;;;;;19.73;9.13;;;;;;;16.47;100.00;102464.19;5228152;28;20098;-69
2021/07/17 04:32:27;;;;;;;21.55;9.48;;;;;;;16.45;100.00;102460.84;5229077;28;20017;-69
2021/07/17 04:34:59;;;;;;;22.13;9.18;;;;;;;16.49;100.00;102464.91;5243714;28;20048;-69
2021/07/17 04:37:30;;;;;;;23.58;9.90;;;;;;;16.53;100.00;102465.50;5226293;28;20070;-69
2021/07/17 04:40:03;;;;;;;25.35;9.70;;;;;;;16.51;100.00;102467.41;5225221;28;20037;-69
2021/07/17 04:42:34;;;;;;;24.35;11.23;;;;;;;16.50;100.00;102466.56;5222376;28;20029;-69
2021/07/17 04:45:07;;;;;;;19.02;9.73;;;;;;;16.52;100.00;102469.94;5223273;28;20075;-70
2021/07/17 04:47:39;;;;;;;28.83;10.35;;;;;;;16.52;100.00;102471.75;5221897;28;20032;-69
2021/07/17 04:50:10;;;;;;;23.83;9.93;;;;;;;16.53;100.00;102468.13;5224131;28;20034;-69
2021/07/17 04:52:41;;;;;;;18.27;9.25;;;;;;;16.59;100.00;102466.75;5223875;28;20038;-69
2021/07/17 04:55:13;;;;;;;27.42;10.48;;;;;;;16.54;100.00;102462.69;5222297;28;20029;-69
2021/07/17 04:57:44;;;;;;;26.33;10.75;;;;;;;16.60;100.00;102471.94;5223206;28;20026;-69
2021/07/17 05:00:16;;;;;;;23.48;10.07;;;;;;;16.64;100.00;102465.41;5224932;28;20060;-69
2021/07/17 05:02:49;;;;;;;20.73;9.93;;;;;;;16.67;100.00;102469.63;5222076;28;20045;-69
2021/07/17 05:05:21;;;;;;;;;;;;;;;16.97;100.00;102463.50;5218484;28;20285;-69
2021/07/17 05:07:53;;;;;;;21.02;9.93;;;;;;;16.77;100.00;102473.19;5224913;28;19921;-69
2021/07/17 05:10:25;;;;;;;19.02;10.10;;;;;;;16.76;100.00;102477.63;5223794;28;20035;-69
2021/07/17 05:12:56;;;;;;;20.95;10.43;;;;;;;16.74;100.00;102468.13;5224090;28;20328;-69
2021/07/17 05:15:28;;;;;;;23.27;9.93;;;;;;;16.77;100.00;102481.13;5224674;28;20021;-69
2021/07/17 05:17:59;;;;;;;31.85;10.15;;;;;;;16.69;100.00;102471.16;5222449;28;20752;-69
2021/07/17 05:20:31;;;;;;;26.20;10.80;;;;;;;16.66;100.00;102467.94;5223094;28;20558;-69
2021/07/17 05:23:03;;;;;;;25.20;10.35;;;;;;;16.63;100.00;102474.34;5222704;28;20024;-69
2021/07/17 05:25:35;;;;;;;26.95;10.48;;;;;;;16.66;100.00;102476.69;5222218;28;20124;-69
2021/07/17 05:28:06;;;;;;;22.30;10.75;;;;;;;16.66;100.00;102481.16;5223517;28;20021;-69
2021/07/17 05:30:37;;;;;;;26.13;10.50;;;;;;;16.72;100.00;102481.47;5221756;28;20064;-69
2021/07/17 05:33:11;;;;;;;25.85;11.27;;;;;;;16.80;100.00;102482.69;5222869;28;20038;-69
2021/07/17 05:35:43;;;;;;;24.10;10.98;;;;;;;16.80;100.00;102494.09;5221197;28;20044;-69
2021/07/17 05:38:15;;;;;;;22.10;9.52;;;;;;;16.88;100.00;102488.16;5222030;28;20069;-69
2021/07/17 05:40:46;;;;;;;25.98;10.23;;;;;;;16.88;100.00;102482.84;5222903;28;20991;-69
2021/07/17 05:43:17;;;;;;;26.52;10.70;;;;;;;16.94;100.00;102490.28;5226034;28;20030;-69
2021/07/17 05:45:52;;;;;;;27.02;10.18;;;;;;;16.98;100.00;102495.19;5222666;28;20041;-69
2021/07/17 05:48:23;;;;;;;31.15;10.63;;;;;;;16.96;100.00;102489.16;5221331;28;20597;-69
2021/07/17 05:50:54;;;;;;;29.30;10.30;;;;;;;17.01;100.00;102483.50;5218330;28;20105;-69
2021/07/17 05:53:26;;;;;;;28.65;10.98;;;;;;;17.06;100.00;102480.44;5220836;28;20041;-69
2021/07/17 05:55:57;;;;;;;25.92;10.95;;;;;;;17.10;100.00;102489.78;5223270;28;20044;-69
2021/07/17 05:58:28;;;;;;;25.95;10.07;;;;;;;17.18;100.00;102482.00;5224051;28;20071;-69
2021/07/17 06:01:00;;;;;;;23.65;9.65;;;;;;;17.30;100.00;102488.06;5223827;28;20080;-69
2021/07/17 06:03:31;;;;;;;28.30;10.80;;;;;;;17.31;100.00;102489.72;5207250;28;20051;-69
2021/07/17 06:06:02;;;;;;;24.50;10.95;;;;;;;17.37;100.00;102487.38;5222676;28;20076;-69
2021/07/17 06:08:34;;;;;;;22.98;9.45;;;;;;;17.39;100.00;102487.25;5223310;28;20363;-69
2021/07/17 06:11:05;;;;;;;23.75;9.63;;;;;;;17.44;100.00;102490.34;5222051;28;20030;-69
2021/07/17 06:13:36;;;;;;;27.60;9.80;;;;;;;17.40;100.00;102486.28;5219589;28;20028;-69
2021/07/17 06:16:08;;;;;;;24.77;9.82;;;;;;;17.45;100.00;102497.31;5225236;28;20033;-69
2021/07/17 06:18:39;;;;;;;25.00;10.20;;;;;;;17.51;100.00;102486.19;5216706;28;20471;-69
2021/07/17 06:21:11;;;;;;;32.47;10.00;;;;;;;17.59;100.00;102499.59;5216124;28;20529;-69
2021/07/17 06:23:42;;;;;;;26.33;9.87;;;;;;;17.63;100.00;102501.00;5213140;28;20033;-70
2021/07/17 06:26:13;;;;;;;29.70;10.17;;;;;;;17.69;100.00;102507.53;5216173;28;20113;-69
2021/07/17 06:28:44;;;;;;;22.52;9.20;;;;;;;17.70;100.00;102510.06;5220679;28;20037;-69
2021/07/17 06:31:17;;;;;;;20.45;8.88;;;;;;;17.69;100.00;102508.41;5221610;28;20025;-69
2021/07/17 06:33:48;;;;;;;22.27;8.95;;;;;;;17.73;100.00;102511.63;5220288;28;20124;-69
2021/07/17 06:36:20;;;;;;;21.93;9.20;;;;;;;17.72;100.00;102521.38;5219517;28;20017;-69
2021/07/17 06:38:51;;;;;;;22.23;8.30;;;;;;;17.75;100.00;102517.66;5223391;28;20274;-69
2021/07/17 06:41:23;;;;;;;21.90;8.60;;;;;;;17.82;100.00;102512.66;5221424;28;20116;-69
2021/07/17 06:43:54;;;;;;;24.20;9.30;;;;;;;17.88;100.00;102520.03;5218559;28;20038;-70
2021/07/17 06:46:25;;;;;;;20.30;8.07;;;;;;;17.98;100.00;102520.88;5219081;28;20061;-70
2021/07/17 06:48:57;;;;;;;24.67;8.70;;;;;;;18.15;100.00;102527.34;5219750;28;20044;-69
2021/07/17 06:51:28;;;;;;;20.98;8.63;;;;;;;18.28;100.00;102533.19;5220968;28;20084;-70
2021/07/17 06:54:00;;;;;;;26.00;8.50;;;;;;;18.30;100.00;102535.72;5219059;28;20037;-69
2021/07/17 06:56:31;;;;;;;21.52;8.27;;;;;;;18.27;100.00;102528.88;5218868;28;20017;-69
2021/07/17 06:59:03;;;;;;;19.60;7.97;;;;;;;18.23;100.00;102530.97;5217498;28;20035;-69
2021/07/17 07:01:34;;;;;;;23.17;8.23;;;;;;;18.23;100.00;102533.63;5221095;28;20486;-69
2021/07/17 07:04:05;;;;;;;22.47;8.37;;;;;;;18.29;100.00;102528.72;5220684;28;20025;-69
2021/07/17 07:06:37;;;;;;;22.47;8.67;;;;;;;18.31;100.00;102534.75;5217408;28;20025;-69
2021/07/17 07:09:08;;;;;;;18.52;7.75;;;;;;;18.32;100.00;102531.09;5221456;28;20030;-69
2021/07/17 07:11:39;;;;;;;16.17;7.33;;;;;;;18.45;100.00;102540.47;5221659;28;20030;-69
2021/07/17 07:14:11;;;;;;;18.40;8.38;;;;;;;18.56;100.00;102546.59;5220696;28;20025;-69
2021/07/17 07:16:42;;;;;;;20.27;8.13;;;;;;;18.71;100.00;102539.91;5219963;28;20049;-69
2021/07/17 07:19:13;;;;;;;15.70;7.47;;;;;;;18.82;100.00;102538.91;5222889;28;20021;-70
2021/07/17 07:21:45;;;;;;;17.20;7.90;;;;;;;18.80;100.00;102539.06;5223851;28;20037;-70
2021/07/17 07:24:16;;;;;;;18.37;7.90;;;;;;;18.94;100.00;102540.41;5223587;28;20514;-70
2021/07/17 07:26:47;;;;;;;21.97;7.73;;;;;;;19.11;100.00;102547.66;5218163;28;20443;-69
2021/07/17 07:29:19;;;;;;;14.23;7.00;;;;;;;19.09;100.00;102546.09;5222307;28;20061;-69
2021/07/17 07:31:51;;;;;;;16.07;7.20;;;;;;;19.13;100.00;102543.03;5222744;28;20068;-69
2021/07/17 07:34:22;;;;;;;17.40;7.13;;;;;;;19.14;100.00;102538.56;5219429;28;20090;-69
2021/07/17 07:36:53;;;;;;;14.87;6.33;;;;;;;19.09;100.00;102552.28;5220624;28;20050;-69
2021/07/17 07:39:25;;;;;;;18.67;7.53;;;;;;;19.18;100.00;102548.75;5220185;28;20088;-69
2021/07/17 07:41:56;;;;;;;14.57;7.17;;;;;;;19.26;100.00;102556.00;5219828;28;20025;-69
2021/07/17 07:44:28;;;;;;;21.43;7.13;;;;;;;19.17;100.00;102546.25;5222194;28;20034;-70
2021/07/17 07:47:00;;;;;;;16.92;7.00;;;;;;;19.17;100.00;102549.72;5220021;28;20118;-69
2021/07/17 07:49:32;;;;;;;21.23;7.60;;;;;;;19.25;100.00;102548.16;5222991;28;20080;-70
2021/07/17 07:52:04;;;;;;;16.45;7.63;;;;;;;19.39;100.00;102542.34;5221050;28;20116;-69
2021/07/17 07:54:35;;;;;;;21.50;7.50;;;;;;;19.56;100.00;102546.06;5220317;28;20362;-69
2021/07/17 07:57:07;;;;;;;15.03;5.93;;;;;;;19.73;100.00;102547.13;5221395;28;20038;-70
2021/07/17 07:59:38;;;;;;;16.07;6.23;;;;;;;19.86;100.00;102555.59;5221713;28;20033;-69
2021/07/17 08:02:09;;;;;;;14.07;6.63;;;;;;;19.87;100.00;102542.13;5221753;28;20040;-70
2021/07/17 08:04:41;;;;;;;19.43;7.37;;;;;;;20.03;100.00;102538.81;5218503;28;20037;-70
2021/07/17 08:07:12;;;;;;;17.60;6.07;;;;;;;20.12;100.00;102540.56;5217937;28;20026;-69
2021/07/17 08:09:43;;;;;;;18.83;6.83;;;;;;;20.34;100.00;102541.09;5219913;28;20040;-69
2021/07/17 08:12:15;;;;;;;14.50;6.30;;;;;;;20.39;98.10;102528.16;5219872;28;20523;-69
2021/07/17 08:14:46;;;;;;;16.23;5.67;;;;;;;20.64;100.00;102537.19;5220413;28;20501;-69
2021/07/17 08:17:17;;;;;;;15.03;5.20;;;;;;;20.68;98.70;102538.56;5226067;28;21120;-69
2021/07/17 08:19:48;;;;;;;15.07;5.70;;;;;;;20.77;96.63;102542.13;5224092;28;20095;-71
2021/07/17 08:22:20;;;;;;;15.37;6.33;;;;;;;20.73;96.62;102541.59;5224158;28;20581;-71
2021/07/17 08:24:51;;;;;;;11.53;5.70;;;;;;;20.77;96.27;102536.81;5221571;28;20074;-71
2021/07/17 08:27:22;;;;;;;17.93;6.23;;;;;;;20.87;97.21;102541.06;5225664;28;20239;-70
2021/07/17 08:29:53;;;;;;;13.07;5.30;;;;;;;20.89;94.46;102540.88;5221472;28;20029;-71
2021/07/17 08:32:26;;;;;;;16.57;6.03;;;;;;;21.03;94.76;102536.81;5223335;28;20040;-71
2021/07/17 08:34:57;;;;;;;10.25;4.68;;;;;;;21.12;95.94;102536.69;5218543;28;20104;-70
2021/07/17 08:37:29;;;;;;;17.13;5.13;;;;;;;21.25;93.64;102536.28;5218350;28;20478;-71
2021/07/17 08:40:03;;;;;;;15.07;4.87;;;;;;;21.44;93.50;102537.03;5215690;28;20119;-71
2021/07/17 08:42:43;;;;;;;11.35;5.32;;;;;;;21.62;95.57;102537.75;5223089;28;20110;-71
2021/07/17 08:45:15;;;;;;;13.77;5.40;;;;;;;21.52;93.16;102537.06;5225487;28;20052;-71
2021/07/17 08:47:46;;;;;;;16.80;5.97;;;;;;;21.69;94.03;102532.63;5218891;28;20045;-71
2021/07/17 08:50:22;;;;;;;12.77;4.80;;;;;;;21.82;92.33;102531.16;5214553;28;20029;-71
2021/07/17 08:52:56;;;;;;;13.30;5.38;;;;;;;21.95;91.07;102543.19;5219793;28;20503;-71
2021/07/17 08:55:27;;;;;;;10.48;4.65;;;;;;;22.07;91.47;102544.53;5223235;28;20034;-71
2021/07/17 08:58:00;;;;;;;11.13;5.13;;;;;;;22.12;90.24;102539.53;5221542;28;20030;-70
2021/07/17 09:00:43;;;;;;;14.98;5.57;;;;;;;22.22;91.11;102539.41;5222326;28;20539;-71
2021/07/17 09:03:17;;;;;;;10.40;4.53;;;;;;;22.14;89.14;102532.25;5220319;28;20021;-71
2021/07/17 09:05:49;;;;;;;11.80;4.85;;;;;;;22.17;89.54;102537.25;5223518;28;20068;-71
2021/07/17 09:08:21;;;;;;;12.03;4.90;;;;;;;22.27;87.66;102532.56;5225108;28;20675;-70
2021/07/17 09:10:54;;;;;;;10.77;4.40;;;;;;;22.40;86.76;102539.28;5222365;28;20509;-70
2021/07/17 09:13:27;;;;;;;9.52;3.55;;;;;;;22.45;85.84;102526.25;5222270;28;20512;-70
2021/07/17 09:16:18;;;;;;;12.27;4.60;;;;;;;22.61;87.87;102530.72;5223910;28;20487;-70
2021/07/17 09:18:53;;;;;;;14.57;4.35;;;;;;;22.73;89.03;102529.38;5224090;28;20586;-70
2021/07/17 09:21:37;;;;;;;7.32;4.13;;;;;;;22.95;87.85;102539.38;5224214;28;20107;-70
2021/07/17 09:24:12;;;;;;;12.20;4.40;;;;;;;23.06;85.83;102533.69;5224586;28;20021;-70
2021/07/17 09:26:58;;;;;;;9.52;4.13;;;;;;;23.23;86.77;102530.97;5224358;28;20042;-71
2021/07/17 09:29:37;;;;;;;10.80;4.07;;;;;;;23.27;85.86;102529.63;5222733;28;20029;-69
2021/07/17 09:32:15;;;;;;;11.43;4.03;;;;;;;23.45;84.20;102532.03;5222941;28;20033;-70
2021/07/17 09:34:46;;;;;;;9.07;3.10;;;;;;;23.43;83.31;102512.66;5216476;28;20552;-70
2021/07/17 09:37:23;;;;;;;9.87;3.93;;;;;;;23.43;82.97;102532.22;5219017;28;20148;-70
2021/07/17 09:39:54;;;;;;;7.03;3.90;;;;;;;23.59;83.90;102527.78;5226341;28;20430;-70
2021/07/17 09:42:25;;;;;;;11.77;4.07;;;;;;;23.57;81.13;102525.31;5218271;28;20022;-70
2021/07/17 09:44:57;;;;;;;13.93;4.30;;;;;;;23.44;81.73;102525.00;5216155;28;20033;-70
2021/07/17 09:47:28;;;;;;;9.17;3.10;;;;;;;23.61;80.23;102523.94;5222588;28;20033;-70
2021/07/17 09:50:17;;;;;;;8.83;3.13;;;;;;;23.65;78.66;102522.56;5221279;28;20049;-70
2021/07/17 09:52:48;;;;;;;8.13;3.00;;;;;;;23.70;76.38;102514.88;5218222;28;20021;-70
2021/07/17 09:55:19;;;;;;;6.83;3.27;;;;;;;23.82;79.08;102526.00;5218916;28;20065;-71
2021/07/17 09:57:51;;;;;;;9.27;3.07;;;;;;;24.10;79.36;102515.63;5222267;28;20033;-70
2021/07/17 10:00:24;;;;;;;7.73;3.70;;;;;;;23.96;75.69;102529.78;5219904;28;20046;-70
2021/07/17 10:02:55;;;;;;;6.22;2.83;;;;;;;23.92;77.59;102528.47;5219483;28;20079;-70
2021/07/17 10:05:38;;;;;;;7.53;2.90;;;;;;;23.94;78.52;102521.94;5212575;28;20136;-70
2021/07/17 10:08:12;;;;;;;7.22;3.13;;;;;;;23.91;78.77;102521.47;5218311;28;20108;-70
2021/07/17 10:10:46;;;;;;;6.70;3.10;;;;;;;24.02;76.50;102523.72;5217758;28;20036;-70
2021/07/17 10:13:26;;;;;;;8.13;3.22;;;;;;;23.97;77.95;102518.88;5216732;28;20146;-70
2021/07/17 10:15:58;;;;;;;7.43;3.22;;;;;;;24.23;77.34;102526.56;5216182;28;20030;-71
2021/07/17 10:18:29;;;;;;;9.67;3.60;;;;;;;24.25;75.16;102523.72;5219649;28;20022;-70
2021/07/17 10:21:01;;;;;;;9.87;3.33;;;;;;;24.27;75.54;102532.38;5217092;28;20056;-70
2021/07/17 10:23:32;;;;;;;8.77;3.20;;;;;;;24.22;77.09;102538.28;5219339;28;20052;-70
2021/07/17 10:26:04;;;;;;;9.00;3.10;;;;;;;24.35;76.27;102531.50;5217749;28;20487;-70
2021/07/17 10:28:38;;;;;;;8.68;3.28;;;;;;;24.59;77.35;102541.22;5217614;28;20108;-70
2021/07/17 10:31:09;;;;;;;6.38;2.55;;;;;;;24.49;73.63;102528.06;5217945;28;20036;-70
2021/07/17 10:33:41;;;;;;;6.53;2.73;;;;;;;24.47;73.69;102536.28;5219202;28;20025;-71
2021/07/17 10:36:15;;;;;;;10.17;3.10;;;;;;;24.62;72.15;102527.41;5222584;28;20391;-70
2021/07/17 10:38:51;;;;;;;6.00;2.53;;;;;;;24.79;73.37;102531.63;5220110;28;20399;-70
2021/07/17 10:41:24;;;;;;;6.93;3.05;;;;;;;24.67;73.34;102525.88;5223042;28;20443;-70
2021/07/17 10:43:56;;;;;;;7.78;2.65;;;;;;;24.71;71.99;102523.66;5220033;28;20096;-71
2021/07/17 10:46:32;;;;;;;9.13;2.80;;;;;;;24.69;74.25;102517.63;5220408;28;20116;-70
2021/07/17 10:49:06;;;;;;;9.55;2.72;;;;;;;24.85;73.17;102516.63;5217541;28;20026;-71
2021/07/17 10:51:42;;;;;;;7.18;2.58;;;;;;;24.87;73.26;102518.13;5216773;28;20056;-70
2021/07/17 10:54:27;;;;;;;6.35;2.33;;;;;;;25.08;73.28;102511.16;5221633;28;20100;-72
2021/07/17 10:56:59;;;;;;;8.00;2.55;;;;;;;24.90;70.69;102520.44;5221053;28;20049;-71
2021/07/17 10:59:30;;;;;;;6.93;3.00;;;;;;;25.10;70.60;102526.09;5222787;28;20061;-71
2021/07/17 11:02:05;;;;;;;8.70;2.80;;;;;;;25.15;70.68;102521.00;5220494;28;20466;-70
2021/07/17 11:04:54;;;;;;;6.93;3.00;;;;;;;25.35;72.04;102526.66;5217563;28;20040;-71
2021/07/17 11:07:26;;;;;;;6.82;2.30;;;;;;;25.15;70.81;102522.84;5216630;28;20522;-70
2021/07/17 11:10:08;;;;;;;5.65;2.28;;;;;;;25.37;71.18;102527.28;5214914;28;20037;-70
2021/07/17 11:12:48;;;;;;;6.37;2.30;;;;;;;25.59;71.22;102513.91;5216501;28;20565;-70
2021/07/17 11:15:20;;;;;;;7.75;2.65;;;;;;;25.43;70.51;102510.44;5220405;28;20088;-70
2021/07/17 11:17:54;;;;;;;8.23;2.50;;;;;;;25.39;70.47;102525.25;5218924;28;20388;-70
2021/07/17 11:20:32;;;;;;;5.85;2.20;;;;;;;25.53;68.61;102517.34;5214494;28;20030;-69
2021/07/17 11:23:05;;;;;;;6.60;2.45;;;;;;;25.43;70.16;102523.84;5211693;28;20021;-70
2021/07/17 11:25:37;;;;;;;7.68;2.88;;;;;;;25.43;70.07;102520.34;5217303;28;20025;-72
2021/07/17 11:28:08;;;;;;;5.07;2.15;;;;;;;25.76;69.28;102520.72;5219632;28;20038;-70
2021/07/17 11:30:39;;;;;;;6.83;2.27;;;;;;;25.77;68.08;102514.31;5210614;28;20030;-72
2021/07/17 11:33:14;;;;;;;5.10;2.47;;;;;;;26.06;67.54;102513.38;5210598;28;20041;-71
2021/07/17 11:35:46;;;;;;;5.97;2.50;;;;;;;25.99;69.71;102504.47;5218969;28;20043;-71